Startpagina
METAR-TAF:

METAR-TAF

Vliegvelden :

Marham, Engeland

breedte: 52-39N, lengte: 000-34E, hoogte: 23 m

Actueel weer

Dit bericht is 1 uur en het 4 minuten geleden gemaakt, om 01:50 UTC
Wind 10 kt uit het oostzuidoosten
Temperatuur 13°C
Vochtigheid 82%
Druk 1019 hPa
Zicht 10 km of meer

METAR: EGYM 210150Z AUTO 11010KT 9999 NCD 13/10 Q1019

Tijdstip: 03:54 (02:54 UTC)

Verwachting

Dit bericht is 12 uur en het 38 minuten geleden gemaakt, om 14:16 UTC
Verwachting geldig van 20 om 15 UTC tot 20 om 18 UTC
Wind 10 kt uit het oostzuidoosten
Zicht 10 km of meer
Weinig wolken op 3000 ft

TAF: EGYM 201416Z 2015/2018 12010KT 9999 FEW030

Waarnemingen en weersverwachtingen van meer dan 4000 vliegvelden (METAR en TAF).

De beschikbare stations zijn de gele en rode punten op de kaart.

Ga met uw muis naar het station om de naam te zien.

Klik dan om waarnemingen en weersverwachtingen te zien.

kaart wijzigen: klik op de groene knoppen met een zwart kruis om in te zoomen, op de groene knop met een streepje om uit te zoomen of op de groene pijlen voor aangrenzende kaarten.


METAR-TAF: